Time;durP1;ratioP1;P1;durP2;ratioP2;P2;SDS_P1;SDS_P2;PMS_P1;PMS_P2;Temp;Humidity;BMP_temperature;BMP_pressure;BME280_temperature;BME280_humidity;BME280_pressure;Samples;Min_cycle;Max_cycle;Signal;HPM_P1;HPM_P2
2023/07/19 00:00:50;;;;;;;10.07;6.80;;;22.10;99.90;;;;;;5028072;28;20478;-62
2023/07/19 00:03:17;;;;;;;8.23;7.13;;;21.10;99.60;;;;;;5027465;28;20493;-62
2023/07/19 00:05:44;;;;;;;7.67;6.00;;;21.10;99.80;;;;;;5027973;28;20486;-63
2023/07/19 00:08:11;;;;;;;12.33;6.83;;;21.10;99.70;;;;;;5022065;28;20478;-62
2023/07/19 00:10:39;;;;;;;10.80;6.67;;;21.00;99.50;;;;;;5033009;28;20542;-63
2023/07/19 00:13:06;;;;;;;7.57;6.20;;;21.00;99.70;;;;;;5028892;28;20493;-62
2023/07/19 00:15:33;;;;;;;9.50;6.10;;;17.60;98.90;;;;;;5021271;28;20686;-62
2023/07/19 00:18:00;;;;;;;11.73;7.17;;;20.50;99.90;;;;;;5039569;28;20486;-62
2023/07/19 00:20:27;;;;;;;11.07;7.00;;;20.20;99.90;;;;;;5028717;28;20486;-63
2023/07/19 00:22:54;;;;;;;10.87;6.93;;;20.20;99.90;;;;;;5058156;28;20534;-62
2023/07/19 00:25:21;;;;;;;15.67;6.97;;;20.10;99.90;;;;;;5053277;27;20742;-63
2023/07/19 00:27:49;;;;;;;14.47;6.53;;;20.10;99.90;;;;;;5049510;28;20581;-62
2023/07/19 00:30:16;;;;;;;7.33;6.50;;;20.10;99.90;;;;;;5029570;28;20490;-62
2023/07/19 00:32:43;;;;;;;7.20;6.03;;;20.10;99.90;;;;;;5027773;28;20487;-62
2023/07/19 00:35:10;;;;;;;8.87;7.00;;;20.30;99.90;;;;;;5028652;28;20895;-62
2023/07/19 00:37:37;;;;;;;10.70;6.87;;;20.30;99.90;;;;;;5021026;28;20474;-63
2023/07/19 00:40:04;;;;;;;12.60;7.53;;;20.30;99.90;;;;;;5073754;28;21615;-63
2023/07/19 00:42:31;;;;;;;21.47;8.43;;;20.30;99.90;;;;;;5059543;28;20488;-62
2023/07/19 00:44:59;;;;;;;11.80;8.03;;;20.30;99.90;;;;;;5057444;28;20473;-61
2023/07/19 00:47:27;;;;;;;16.33;6.93;;;20.30;99.90;;;;;;5049802;28;20487;-62
2023/07/19 00:49:54;;;;;;;19.40;8.00;;;20.30;99.90;;;;;;5053460;27;21379;-62
2023/07/19 00:52:21;;;;;;;10.57;6.37;;;20.30;99.90;;;;;;5049721;28;20742;-62
2023/07/19 00:54:48;;;;;;;8.93;7.43;;;20.20;99.90;;;;;;5053519;28;20730;-62
2023/07/19 00:57:15;;;;;;;10.63;6.57;;;20.20;99.90;;;;;;5054162;28;21139;-62
2023/07/19 00:59:42;;;;;;;9.90;6.47;;;20.20;99.90;;;;;;5054232;28;21061;-61
2023/07/19 01:02:10;;;;;;;10.97;7.90;;;20.10;99.90;;;;;;5044195;28;20485;-62
2023/07/19 01:04:37;;;;;;;8.23;7.40;;;20.00;99.90;;;;;;5051024;28;20842;-62
2023/07/19 01:07:05;;;;;;;13.60;7.43;;;20.00;99.90;;;;;;5013338;28;20481;-62
2023/07/19 01:09:33;;;;;;;10.03;7.20;;;19.90;99.90;;;;;;5035516;28;21150;-62
2023/07/19 01:11:59;;;;;;;9.47;6.80;;;19.90;99.90;;;;;;5045456;28;20475;-62
2023/07/19 01:14:26;;;;;;;9.03;6.80;;;19.80;99.90;;;;;;5032405;28;20489;-62
2023/07/19 01:16:53;;;;;;;9.93;7.93;;;19.80;99.90;;;;;;5018104;28;20483;-61
2023/07/19 01:19:21;;;;;;;14.60;8.33;;;19.80;99.90;;;;;;5035735;28;20840;-61
2023/07/19 01:21:50;;;;;;;11.23;7.40;;;19.70;99.90;;;;;;5023209;28;20955;-61
2023/07/19 01:24:18;;;;;;;11.10;8.83;;;19.60;99.90;;;;;;5015549;28;21631;-61
2023/07/19 01:26:45;;;;;;;14.33;8.77;;;19.50;99.90;;;;;;5021873;28;20822;-61
2023/07/19 01:29:12;;;;;;;14.40;9.03;;;19.40;99.90;;;;;;5022319;28;20511;-62
2023/07/19 01:31:39;;;;;;;11.00;8.27;;;19.40;99.90;;;;;;5018125;28;20843;-62
2023/07/19 01:34:07;;;;;;;8.20;6.90;;;19.40;99.90;;;;;;5020405;28;20487;-62
2023/07/19 01:36:34;;;;;;;13.43;7.10;;;19.40;99.90;;;;;;5025530;28;20982;-62
2023/07/19 01:39:01;;;;;;;12.93;8.63;;;19.40;99.90;;;;;;5025678;28;20472;-61
2023/07/19 01:41:29;;;;;;;16.03;8.10;;;19.40;99.90;;;;;;5017434;28;20572;-62
2023/07/19 01:43:56;;;;;;;12.93;8.87;;;19.30;99.90;;;;;;5021124;28;20488;-61
2023/07/19 01:46:23;;;;;;;19.50;10.67;;;19.30;99.90;;;;;;5033808;28;20501;-62
2023/07/19 01:48:49;;;;;;;13.77;9.03;;;19.40;99.90;;;;;;5022906;28;20586;-61
2023/07/19 01:51:16;;;;;;;16.93;10.33;;;19.40;99.90;;;;;;5010597;28;20480;-63
2023/07/19 01:53:43;;;;;;;10.70;9.20;;;19.40;99.90;;;;;;5019779;28;20994;-63
2023/07/19 01:56:10;;;;;;;13.93;9.30;;;19.40;99.90;;;;;;5018850;28;20449;-62
2023/07/19 01:58:38;;;;;;;10.97;8.57;;;19.30;99.90;;;;;;5016875;28;20484;-63
2023/07/19 02:01:05;;;;;;;14.43;8.80;;;19.30;99.90;;;;;;5019944;28;20489;-63
2023/07/19 02:03:32;;;;;;;10.33;8.50;;;19.10;99.90;;;;;;5024944;28;21013;-62
2023/07/19 02:05:59;;;;;;;12.33;7.37;;;19.00;99.90;;;;;;5027132;28;20483;-62
2023/07/19 02:08:26;;;;;;;12.43;8.40;;;18.90;99.90;;;;;;5025285;28;20479;-63
2023/07/19 02:10:54;;;;;;;14.30;9.33;;;18.90;99.90;;;;;;5022233;28;20476;-63
2023/07/19 02:13:20;;;;;;;10.37;9.30;;;18.80;99.90;;;;;;5018972;28;20474;-62
2023/07/19 02:15:49;;;;;;;12.17;8.33;;;18.80;99.90;;;;;;5028894;28;20505;-62
2023/07/19 02:18:16;;;;;;;11.67;7.57;;;18.80;99.90;;;;;;5030192;28;20878;-62
2023/07/19 02:20:46;;;;;;;12.13;9.60;;;18.80;99.90;;;;;;5019859;28;20486;-62
2023/07/19 02:23:14;;;;;;;11.80;9.47;;;18.80;99.90;;;;;;5017995;28;20512;-62
2023/07/19 02:25:42;;;;;;;9.40;7.40;;;18.80;99.90;;;;;;5027027;28;20481;-61
2023/07/19 02:28:10;;;;;;;10.50;7.73;;;18.60;99.90;;;;;;5043173;28;20846;-62
2023/07/19 02:30:42;;;;;;;14.40;9.20;;;18.40;99.90;;;;;;5035096;28;20479;-62
2023/07/19 02:33:11;;;;;;;13.90;10.00;;;18.30;99.90;;;;;;5031516;28;20963;-62
2023/07/19 02:35:38;;;;;;;12.13;9.27;;;18.30;99.90;;;;;;5030228;28;20480;-61
2023/07/19 02:38:04;;;;;;;15.30;10.53;;;18.20;99.90;;;;;;5032266;28;20480;-62
2023/07/19 02:40:31;;;;;;;11.07;8.10;;;18.30;99.90;;;;;;5036225;28;21125;-61
2023/07/19 02:42:58;;;;;;;12.87;9.10;;;18.20;99.90;;;;;;5034560;28;20479;-62
2023/07/19 02:45:25;;;;;;;10.23;8.90;;;18.10;99.90;;;;;;5026135;28;20485;-62
2023/07/19 02:47:52;;;;;;;12.53;9.03;;;18.10;99.90;;;;;;5034545;28;20475;-62
2023/07/19 02:50:21;;;;;;;14.57;9.77;;;18.10;99.90;;;;;;5033942;28;20460;-62
2023/07/19 02:52:48;;;;;;;15.13;8.67;;;18.10;99.90;;;;;;5035584;28;20490;-62
2023/07/19 02:55:15;;;;;;;17.73;10.57;;;18.20;99.90;;;;;;5032195;28;20484;-62
2023/07/19 02:57:41;;;;;;;17.50;10.70;;;18.20;99.90;;;;;;5030081;28;20753;-62
2023/07/19 03:00:10;;;;;;;14.10;9.27;;;18.00;99.90;;;;;;5036937;28;20491;-61
2023/07/19 03:02:37;;;;;;;11.17;9.10;;;18.00;99.90;;;;;;5035153;28;20479;-62
2023/07/19 03:05:04;;;;;;;12.10;9.37;;;18.00;99.90;;;;;;5038623;28;21068;-62
2023/07/19 03:07:33;;;;;;;13.73;9.90;;;18.10;99.90;;;;;;5034488;28;20479;-62
2023/07/19 03:10:00;;;;;;;16.60;9.20;;;18.20;99.90;;;;;;5031811;28;20475;-62
2023/07/19 03:12:27;;;;;;;13.27;9.90;;;18.00;99.90;;;;;;5023964;28;20476;-62
2023/07/19 03:14:54;;;;;;;11.90;10.33;;;18.10;99.90;;;;;;5022461;28;20469;-61
2023/07/19 03:17:21;;;;;;;18.13;10.57;;;18.00;99.90;;;;;;5024238;28;20484;-62
2023/07/19 03:19:48;;;;;;;9.60;8.30;;;18.00;99.90;;;;;;5018005;28;21281;-62
2023/07/19 03:22:15;;;;;;;14.73;10.63;;;18.00;99.90;;;;;;5025015;28;20502;-62
2023/07/19 03:24:43;;;;;;;22.90;9.80;;;18.00;99.90;;;;;;5024744;28;20835;-62
2023/07/19 03:27:10;;;;;;;13.03;9.30;;;18.00;99.90;;;;;;5041173;28;20480;-62
2023/07/19 03:29:37;;;;;;;16.13;9.60;;;18.00;99.90;;;;;;5023775;28;20739;-62
2023/07/19 03:32:04;;;;;;;16.83;9.70;;;18.00;99.90;;;;;;5021987;28;20863;-62
2023/07/19 03:34:31;;;;;;;13.03;9.37;;;17.80;99.90;;;;;;5028300;28;20470;-62
2023/07/19 03:36:59;;;;;;;17.37;8.53;;;17.70;99.90;;;;;;5026925;28;20487;-62
2023/07/19 03:39:26;;;;;;;12.00;9.80;;;17.70;99.90;;;;;;5023826;28;20482;-62
2023/07/19 03:41:54;;;;;;;9.57;7.33;;;17.70;99.90;;;;;;5019273;28;20477;-61
2023/07/19 03:44:21;;;;;;;15.70;12.20;;;17.80;99.90;;;;;;5017710;28;20492;-62
2023/07/19 03:46:48;;;;;;;21.07;9.90;;;17.70;99.90;;;;;;5027400;28;20488;-62
2023/07/19 03:49:15;;;;;;;14.70;11.40;;;17.80;99.90;;;;;;5031372;28;20483;-62
2023/07/19 03:51:42;;;;;;;17.23;9.53;;;17.90;99.90;;;;;;5029059;28;20478;-62
2023/07/19 03:54:09;;;;;;;19.30;12.27;;;17.90;99.90;;;;;;5030640;28;20492;-62
2023/07/19 03:56:36;;;;;;;16.13;10.40;;;17.90;99.90;;;;;;5025010;28;20483;-61
2023/07/19 03:59:04;;;;;;;12.60;8.57;;;18.00;99.90;;;;;;5025621;28;20486;-63
2023/07/19 04:01:31;;;;;;;11.50;8.97;;;17.90;99.90;;;;;;5018045;28;20747;-63
2023/07/19 04:03:58;;;;;;;16.53;10.20;;;17.90;99.90;;;;;;5019946;28;20468;-62
2023/07/19 04:06:25;;;;;;;16.10;10.33;;;17.90;99.90;;;;;;5029436;28;20837;-62
2023/07/19 04:08:51;;;;;;;21.50;8.23;;;17.80;99.90;;;;;;5022897;28;20472;-62
2023/07/19 04:11:18;;;;;;;13.87;9.63;;;17.70;99.90;;;;;;5017796;28;20476;-62
2023/07/19 04:13:45;;;;;;;23.63;10.70;;;20.80;99.90;;;;;;5025574;28;21012;-62
2023/07/19 04:16:13;;;;;;;17.30;11.47;;;17.70;99.90;;;;;;5034716;28;20853;-62
2023/07/19 04:18:40;;;;;;;12.17;8.80;;;17.70;99.90;;;;;;5022096;28;20483;-62
2023/07/19 04:21:07;;;;;;;10.60;8.53;;;17.80;99.90;;;;;;5033590;28;20847;-62
2023/07/19 04:23:34;;;;;;;12.00;9.53;;;17.80;99.90;;;;;;5021385;28;20979;-62
2023/07/19 04:26:01;;;;;;;22.17;8.20;;;17.80;99.90;;;;;;5018752;28;20481;-62
2023/07/19 04:28:27;;;;;;;21.87;9.60;;;17.80;99.90;;;;;;5026236;28;20757;-61
2023/07/19 04:30:54;;;;;;;26.70;10.83;;;17.80;99.90;;;;;;5020102;28;20561;-61
2023/07/19 04:33:23;;;;;;;21.50;13.63;;;17.90;99.90;;;;;;5047535;28;20471;-61
2023/07/19 04:35:50;;;;;;;15.93;7.87;;;17.90;99.90;;;;;;5054496;28;20496;-62
2023/07/19 04:38:17;;;;;;;20.70;12.90;;;17.80;99.90;;;;;;5053342;28;20963;-62
2023/07/19 04:40:44;;;;;;;15.40;11.20;;;17.70;99.90;;;;;;5054637;28;20477;-61
2023/07/19 04:43:11;;;;;;;20.33;12.17;;;17.80;99.90;;;;;;5055100;28;20475;-62
2023/07/19 04:45:38;;;;;;;18.03;10.67;;;17.70;99.90;;;;;;5054556;28;20518;-61
2023/07/19 04:48:05;;;;;;;13.93;8.60;;;17.70;99.90;;;;;;5055544;28;20490;-61
2023/07/19 04:50:33;;;;;;;20.37;10.93;;;17.70;99.90;;;;;;5043637;28;20497;-61
2023/07/19 04:53:00;;;;;;;17.00;11.10;;;17.60;99.90;;;;;;5054968;28;20879;-62
2023/07/19 04:55:27;;;;;;;22.97;12.00;;;17.60;99.90;;;;;;5054199;28;20494;-62
2023/07/19 04:57:54;;;;;;;19.27;11.27;;;17.70;99.90;;;;;;5047397;28;20833;-62
2023/07/19 05:00:22;;;;;;;30.10;15.30;;;17.70;99.90;;;;;;5057864;28;20475;-61
2023/07/19 05:02:49;;;;;;;19.00;11.03;;;17.70;99.90;;;;;;5051710;28;20467;-62
2023/07/19 05:05:16;;;;;;;26.23;13.17;;;17.70;99.90;;;;;;5055716;28;21080;-61
2023/07/19 05:07:44;;;;;;;20.87;12.37;;;18.00;99.90;;;;;;5055392;28;20482;-62
2023/07/19 05:10:11;;;;;;;18.50;13.20;;;17.90;99.90;;;;;;5053202;28;20483;-62
2023/07/19 05:12:38;;;;;;;22.70;11.73;;;18.00;99.90;;;;;;5056108;28;20845;-62
2023/07/19 05:15:06;;;;;;;27.37;14.33;;;18.30;99.90;;;;;;5060809;28;20476;-62
2023/07/19 05:17:32;;;;;;;21.33;13.10;;;18.40;99.90;;;;;;5053710;28;20483;-62
2023/07/19 05:19:59;;;;;;;21.47;12.17;;;18.60;99.90;;;;;;5057695;28;20489;-62
2023/07/19 05:22:28;;;;;;;19.33;14.90;;;18.70;99.90;;;;;;5040062;28;20521;-62
2023/07/19 05:24:56;;;;;;;15.87;11.93;;;18.90;99.90;;;;;;5031312;28;20850;-62
2023/07/19 05:27:24;;;;;;;24.73;14.47;;;19.00;99.90;;;;;;5028948;28;20463;-62
2023/07/19 05:29:51;;;;;;;16.07;12.30;;;19.20;99.90;;;;;;5050957;28;21009;-62
2023/07/19 05:32:17;;;;;;;22.07;16.00;;;19.30;99.90;;;;;;5018213;28;20920;-61
2023/07/19 05:34:44;;;;;;;22.87;13.60;;;19.40;99.90;;;;;;5029572;28;20484;-61
2023/07/19 05:37:11;;;;;;;19.70;12.47;;;19.50;99.90;;;;;;5022224;28;20480;-61
2023/07/19 05:39:38;;;;;;;14.07;11.37;;;19.50;99.90;;;;;;5022951;28;20481;-62
2023/07/19 05:42:07;;;;;;;19.97;11.40;;;19.80;99.90;;;;;;5026072;28;20511;-61
2023/07/19 05:44:34;;;;;;;14.57;11.33;;;19.90;99.90;;;;;;5021471;28;20488;-62
2023/07/19 05:47:01;;;;;;;21.93;13.60;;;20.00;99.90;;;;;;5020955;28;20843;-63
2023/07/19 05:49:28;;;;;;;19.43;13.27;;;20.00;99.90;;;;;;5020530;28;20481;-65
2023/07/19 05:51:55;;;;;;;16.13;10.50;;;20.10;99.90;;;;;;5058350;28;20494;-63
2023/07/19 05:54:22;;;;;;;15.40;12.33;;;20.10;99.90;;;;;;5055572;28;20508;-62
2023/07/19 05:56:49;;;;;;;15.20;10.80;;;;;;;;;;5054478;28;20485;-62
2023/07/19 05:59:17;;;;;;;15.87;13.77;;;20.20;99.90;;;;;;5054021;28;20485;-62
2023/07/19 06:01:44;;;;;;;13.33;10.10;;;20.20;99.90;;;;;;5056601;28;20815;-62
2023/07/19 06:04:11;;;;;;;19.07;11.67;;;20.30;99.90;;;;;;5057529;28;20510;-62
2023/07/19 06:06:38;;;;;;;17.63;10.93;;;20.40;99.90;;;;;;5056666;28;20490;-62
2023/07/19 06:09:05;;;;;;;15.03;11.20;;;18.90;99.90;;;;;;5061473;28;20999;-62
2023/07/19 06:11:33;;;;;;;12.57;10.23;;;20.50;99.90;;;;;;5058630;28;20489;-62
2023/07/19 06:14:00;;;;;;;14.73;10.17;;;20.50;99.90;;;;;;5056089;28;20474;-62
2023/07/19 06:16:28;;;;;;;22.87;11.90;;;20.80;99.90;;;;;;5048342;28;20468;-62
2023/07/19 06:18:55;;;;;;;11.70;9.57;;;20.80;99.90;;;;;;5058356;28;21206;-62
2023/07/19 06:21:22;;;;;;;17.83;11.83;;;20.90;99.90;;;;;;5057183;28;20492;-62
2023/07/19 06:23:49;;;;;;;12.97;10.20;;;20.90;99.90;;;;;;5056241;28;20485;-62
2023/07/19 06:26:16;;;;;;;15.80;13.23;;;20.90;99.90;;;;;;5059828;28;20496;-62
2023/07/19 06:28:43;;;;;;;14.33;9.87;;;21.00;99.90;;;;;;5059957;28;20494;-62
2023/07/19 06:31:09;;;;;;;13.87;9.17;;;21.10;99.90;;;;;;5058720;28;20515;-62
2023/07/19 06:33:38;;;;;;;12.70;10.70;;;21.30;99.90;;;;;;5055467;28;20484;-62
2023/07/19 06:36:05;;;;;;;19.83;11.60;;;21.40;99.90;;;;;;5054348;28;21075;-62
2023/07/19 06:38:32;;;;;;;11.10;9.77;;;21.40;99.90;;;;;;5045308;28;20481;-62
2023/07/19 06:41:03;;;;;;;14.47;9.47;;;21.50;99.90;;;;;;5051005;28;20843;-62
2023/07/19 06:43:30;;;;;;;21.93;9.90;;;21.70;99.90;;;;;;5054480;27;20723;-62
2023/07/19 06:45:57;;;;;;;10.67;8.10;;;21.80;99.90;;;;;;5048252;28;20474;-63
2023/07/19 06:48:24;;;;;;;15.90;10.70;;;21.90;99.90;;;;;;5047381;28;21056;-63
2023/07/19 06:50:52;;;;;;;13.47;9.40;;;21.90;99.90;;;;;;5057411;28;20531;-62
2023/07/19 06:53:19;;;;;;;15.37;10.60;;;22.10;99.90;;;;;;5056740;28;21056;-63
2023/07/19 06:55:45;;;;;;;13.30;9.53;;;22.20;99.90;;;;;;5056544;28;20475;-62
2023/07/19 06:58:12;;;;;;;10.90;9.53;;;22.30;99.90;;;;;;5045985;28;20845;-62
2023/07/19 07:00:39;;;;;;;12.67;10.13;;;22.40;99.90;;;;;;5057604;28;20798;-62
2023/07/19 07:03:06;;;;;;;14.23;8.70;;;22.60;99.90;;;;;;5056021;27;20469;-62
2023/07/19 07:05:34;;;;;;;11.63;8.40;;;22.60;99.90;;;;;;5062654;28;20717;-61
2023/07/19 07:08:02;;;;;;;23.80;9.70;;;22.60;99.90;;;;;;5057002;28;20521;-62
2023/07/19 07:10:29;;;;;;;16.20;9.10;;;22.70;99.90;;;;;;5057815;28;20479;-62
2023/07/19 07:12:56;;;;;;;13.50;8.00;;;22.70;99.90;;;;;;5059998;28;20490;-63
2023/07/19 07:15:23;;;;;;;12.07;9.43;;;22.80;99.90;;;;;;5059941;28;20482;-62
2023/07/19 07:17:49;;;;;;;10.70;7.73;;;22.80;99.90;;;;;;5062792;28;20658;-63
2023/07/19 07:20:17;;;;;;;10.13;9.07;;;23.00;99.90;;;;;;5054787;28;20541;-63
2023/07/19 07:22:44;;;;;;;10.40;8.60;;;23.10;99.90;;;;;;5060805;28;20489;-62
2023/07/19 07:25:12;;;;;;;12.00;8.20;;;23.30;99.90;;;;;;5061987;28;21005;-62
2023/07/19 07:27:39;;;;;;;10.37;8.10;;;23.50;99.90;;;;;;5056107;28;20931;-63
2023/07/19 07:30:08;;;;;;;10.67;7.93;;;23.70;99.90;;;;;;5059964;28;20474;-63
2023/07/19 07:32:35;;;;;;;16.80;8.70;;;24.00;99.90;;;;;;5060774;28;20478;-63
2023/07/19 07:35:05;;;;;;;10.33;7.83;;;24.20;99.90;;;;;;5056917;28;20718;-63
2023/07/19 07:37:32;;;;;;;10.10;6.93;;;24.30;99.50;;;;;;5057163;28;20708;-63
2023/07/19 07:39:59;;;;;;;8.50;7.07;;;24.30;99.80;;;;;;5060624;28;20474;-63
2023/07/19 07:42:27;;;;;;;12.30;8.00;;;24.20;98.90;;;;;;5059740;28;20486;-63
2023/07/19 07:44:54;;;;;;;13.23;8.57;;;24.30;98.90;;;;;;5042388;28;20534;-63
2023/07/19 07:47:21;;;;;;;16.30;8.80;;;24.50;99.90;;;;;;5062756;28;20473;-63
2023/07/19 07:49:48;;;;;;;8.73;6.83;;;24.60;99.10;;;;;;5056880;28;20470;-63
2023/07/19 07:52:15;;;;;;;11.90;7.77;;;24.70;98.40;;;;;;5058652;28;20558;-62
2023/07/19 07:54:42;;;;;;;34.90;8.10;;;25.20;98.70;;;;;;5057282;28;20572;-62
2023/07/19 07:57:09;;;;;;;10.10;7.90;;;25.30;97.70;;;;;;5054107;28;20467;-63
2023/07/19 07:59:37;;;;;;;8.10;6.90;;;25.40;97.80;;;;;;5054977;28;20474;-63
2023/07/19 08:02:04;;;;;;;9.27;7.83;;;25.70;97.90;;;;;;5070117;28;20457;-63
2023/07/19 08:04:31;;;;;;;7.50;6.80;;;25.90;97.60;;;;;;5053138;28;20485;-63
2023/07/19 08:06:58;;;;;;;7.50;6.00;;;26.10;96.40;;;;;;5054877;28;20506;-63
2023/07/19 08:09:25;;;;;;;7.40;6.67;;;26.30;95.40;;;;;;5057262;28;20905;-63
2023/07/19 08:11:53;;;;;;;7.93;6.30;;;26.40;94.70;;;;;;5056135;28;21088;-63
2023/07/19 08:14:20;;;;;;;10.23;7.93;;;26.40;94.50;;;;;;5056965;28;20612;-64
2023/07/19 08:16:50;;;;;;;6.80;5.90;;;26.40;94.60;;;;;;5053294;28;20474;-64
2023/07/19 08:19:17;;;;;;;8.63;7.77;;;26.40;92.60;;;;;;5051795;28;20790;-63
2023/07/19 08:21:44;;;;;;;6.10;5.50;;;26.50;94.70;;;;;;5050940;28;20847;-63
2023/07/19 08:24:11;;;;;;;6.57;5.97;;;26.50;93.10;;;;;;5013848;28;20948;-64
2023/07/19 08:26:39;;;;;;;6.87;6.17;;;26.80;93.70;;;;;;5047199;28;20622;-64
2023/07/19 08:29:06;;;;;;;6.40;5.80;;;27.00;94.80;;;;;;5046357;28;20720;-62
2023/07/19 08:31:34;;;;;;;7.70;5.37;;;27.00;90.90;;;;;;5050456;28;20884;-64
2023/07/19 08:34:02;;;;;;;9.23;4.63;;;27.00;91.80;;;;;;5050692;28;20481;-63
2023/07/19 08:36:29;;;;;;;6.77;6.17;;;26.90;90.80;;;;;;5054693;28;20472;-62
2023/07/19 08:38:56;;;;;;;10.93;5.00;;;26.80;91.10;;;;;;5049523;28;20652;-64
2023/07/19 08:41:24;;;;;;;6.97;6.27;;;26.80;87.50;;;;;;5059655;28;20493;-62
2023/07/19 08:43:51;;;;;;;6.57;4.83;;;27.00;88.20;;;;;;5056647;28;20477;-63
2023/07/19 08:46:18;;;;;;;5.73;4.97;;;27.00;87.80;;;;;;5056254;28;20477;-63
2023/07/19 08:48:48;;;;;;;11.67;5.50;;;27.10;84.50;;;;;;5054887;28;20621;-63
2023/07/19 08:51:17;;;;;;;8.03;4.77;;;27.40;84.80;;;;;;5056739;28;20831;-63
2023/07/19 08:53:44;;;;;;;5.27;3.93;;;27.40;84.40;;;;;;5057362;28;20485;-63
2023/07/19 08:56:12;;;;;;;7.20;5.33;;;27.50;84.80;;;;;;5047063;28;20516;-63
2023/07/19 08:58:40;;;;;;;6.30;4.67;;;27.40;84.50;;;;;;5060693;28;20769;-64
2023/07/19 09:01:07;;;;;;;5.63;5.00;;;27.30;85.30;;;;;;5037643;28;20482;-63
2023/07/19 09:03:34;;;;;;;6.23;4.23;;;27.40;87.50;;;;;;5030205;28;20590;-64
2023/07/19 09:06:01;;;;;;;11.67;4.63;;;27.40;85.70;;;;;;5029670;28;20694;-63
2023/07/19 09:08:40;;;;;;;6.03;5.30;;;27.40;84.10;;;;;;5030019;28;20451;-64
2023/07/19 09:11:07;;;;;;;4.27;3.97;;;27.40;82.20;;;;;;5026211;28;20487;-64
2023/07/19 09:13:36;;;;;;;6.90;3.97;;;27.40;84.70;;;;;;5044540;28;21078;-64
2023/07/19 09:16:04;;;;;;;5.20;4.13;;;27.60;85.70;;;;;;5023850;28;20502;-64
2023/07/19 09:18:35;;;;;;;5.73;4.60;;;27.80;85.50;;;;;;5031688;28;20449;-64
2023/07/19 09:21:03;;;;;;;11.50;4.70;;;27.90;84.80;;;;;;5045085;28;20459;-63
2023/07/19 09:23:35;;;;;;;5.60;4.97;;;28.10;84.60;;;;;;5054527;28;21386;-63
2023/07/19 09:26:04;;;;;;;6.20;5.40;;;28.30;86.90;;;;;;5040709;28;20474;-63
2023/07/19 09:28:33;;;;;;;6.17;4.67;;;28.30;84.30;;;;;;5051059;28;20459;-63
2023/07/19 09:31:02;;;;;;;8.73;4.63;;;28.40;84.80;;;;;;5053329;28;20489;-64
2023/07/19 09:33:30;;;;;;;9.23;5.33;;;28.30;87.50;;;;;;5056593;28;20463;-63
2023/07/19 09:35:57;;;;;;;9.33;5.60;;;28.20;84.20;;;;;;5048308;28;20817;-63
2023/07/19 09:38:25;;;;;;;8.30;5.30;;;28.30;84.70;;;;;;5052177;28;20458;-64
2023/07/19 09:40:53;;;;;;;8.53;5.20;;;28.20;85.70;;;;;;5048744;28;20455;-63
2023/07/19 09:43:22;;;;;;;12.57;7.00;;;28.00;88.40;;;;;;5049222;28;21104;-63
2023/07/19 09:45:50;;;;;;;13.03;6.27;;;28.10;89.30;;;;;;5050768;28;20489;-64
2023/07/19 09:48:20;;;;;;;6.53;6.00;;;27.90;88.10;;;;;;5053406;28;20482;-64
2023/07/19 09:50:49;;;;;;;5.63;5.13;;;27.80;88.20;;;;;;5052227;28;20993;-65
2023/07/19 09:53:16;;;;;;;7.50;6.40;;;27.50;88.50;;;;;;5053485;28;20463;-65
2023/07/19 09:55:46;;;;;;;12.53;5.97;;;27.40;88.60;;;;;;5049772;28;20814;-64
2023/07/19 09:58:16;;;;;;;8.70;6.57;;;27.10;89.30;;;;;;5046984;28;20860;-63
2023/07/19 10:00:44;;;;;;;13.00;6.43;;;27.10;90.10;;;;;;5052241;28;20479;-63
2023/07/19 10:03:18;;;;;;;10.90;6.20;;;27.20;89.20;;;;;;5049568;28;20453;-63
2023/07/19 10:05:45;;;;;;;10.90;6.07;;;27.10;90.80;;;;;;5047089;28;20452;-63
2023/07/19 10:08:12;;;;;;;8.47;6.87;;;27.00;91.30;;;;;;5048563;28;20454;-63
2023/07/19 10:10:40;;;;;;;7.30;5.07;;;27.00;91.30;;;;;;5008660;28;20483;-63
2023/07/19 10:13:07;;;;;;;6.10;5.60;;;27.10;91.10;;;;;;5017267;28;20825;-63
2023/07/19 10:15:35;;;;;;;8.13;6.00;;;27.40;92.70;;;;;;5023574;28;20446;-63
2023/07/19 10:18:12;;;;;;;8.23;5.90;;;27.60;90.90;;;;;;5020009;28;20470;-63
2023/07/19 10:20:40;;;;;;;5.87;5.27;;;27.80;90.20;;;;;;5020120;28;20537;-63
2023/07/19 10:23:08;;;;;;;15.33;6.20;;;27.90;91.10;;;;;;5031989;28;20561;-63
2023/07/19 10:25:37;;;;;;;7.03;5.87;;;28.20;91.50;;;;;;5032979;28;20852;-63
2023/07/19 10:28:07;;;;;;;7.60;6.53;;;28.40;91.70;;;;;;5028778;28;20485;-64
2023/07/19 10:30:51;;;;;;;8.00;7.20;;;28.60;90.20;;;;;;5019116;28;20486;-64
2023/07/19 10:33:21;;;;;;;8.83;6.70;;;28.50;90.10;;;;;;5017995;28;20455;-64
2023/07/19 10:35:50;;;;;;;6.60;6.00;;;28.60;90.50;;;;;;5035340;28;20472;-64
2023/07/19 10:38:19;;;;;;;9.97;8.30;;;28.20;89.30;;;;;;5036311;28;20467;-64
2023/07/19 10:40:48;;;;;;;12.20;7.27;;;27.90;90.70;;;;;;5033544;28;20486;-65
2023/07/19 10:43:15;;;;;;;8.60;7.77;;;27.50;90.70;;;;;;5029134;28;20448;-64
2023/07/19 10:45:42;;;;;;;13.13;8.87;;;27.30;92.10;;;;;;5019384;28;20491;-64
2023/07/19 10:48:11;;;;;;;11.50;8.00;;;27.30;92.60;;;;;;5024298;28;20482;-63
2023/07/19 10:50:39;;;;;;;8.10;6.77;;;27.20;92.00;;;;;;5016464;28;20847;-63
2023/07/19 10:53:07;;;;;;;15.43;7.17;;;27.50;92.20;;;;;;5030086;28;20482;-64
2023/07/19 10:55:34;;;;;;;14.03;7.97;;;27.70;91.80;;;;;;5037802;28;20463;-64
2023/07/19 10:58:01;;;;;;;10.97;6.83;;;28.10;88.70;;;;;;5028986;28;21632;-63
2023/07/19 11:00:28;;;;;;;8.03;6.80;;;28.10;89.00;;;;;;5022211;28;20816;-65
2023/07/19 11:02:55;;;;;;;9.23;6.47;;;28.50;90.00;;;;;;5022350;28;20462;-65
2023/07/19 11:05:22;;;;;;;6.63;5.80;;;28.80;88.40;;;;;;5025240;28;20852;-65
2023/07/19 11:07:51;;;;;;;8.23;6.40;;;29.30;88.10;;;;;;5029841;28;20478;-65
2023/07/19 11:10:19;;;;;;;16.17;8.00;;;29.50;85.20;;;;;;5016551;28;20911;-65
2023/07/19 11:12:46;;;;;;;8.00;4.70;;;29.40;81.90;;;;;;5029006;28;20495;-64
2023/07/19 11:15:13;;;;;;;9.10;6.40;;;29.40;82.20;;;;;;5023376;28;20471;-65
2023/07/19 11:17:40;;;;;;;11.07;5.30;;;29.50;83.30;;;;;;5021207;28;20460;-64
2023/07/19 11:20:09;;;;;;;9.60;5.70;;;29.30;79.60;;;;;;5024457;28;20928;-64
2023/07/19 11:22:36;;;;;;;6.13;5.27;;;29.30;81.10;;;;;;5020499;28;20480;-64
2023/07/19 11:25:11;;;;;;;5.80;5.17;;;29.30;82.80;;;;;;5021996;28;20919;-63
2023/07/19 11:27:38;;;;;;;10.43;5.33;;;29.30;80.10;;;;;;5031081;28;20448;-64
2023/07/19 11:30:06;;;;;;;12.90;6.10;;;29.20;79.80;;;;;;5024310;28;20473;-64
2023/07/19 11:32:33;;;;;;;17.77;6.50;;;29.10;79.50;;;;;;5012364;28;21113;-63
2023/07/19 11:35:02;;;;;;;15.97;5.60;;;28.80;80.50;;;;;;5035560;28;20954;-63
2023/07/19 11:37:31;;;;;;;5.87;5.27;;;28.80;80.50;;;;;;5024840;28;20474;-64
2023/07/19 11:39:59;;;;;;;6.93;5.10;;;28.40;78.70;;;;;;5034000;28;20895;-63
2023/07/19 11:42:47;;;;;;;6.83;6.23;;;28.40;78.20;;;;;;5020961;28;20476;-63
2023/07/19 11:45:16;;;;;;;6.23;4.67;;;28.60;79.20;;;;;;5022789;28;20577;-63
2023/07/19 11:47:45;;;;;;;9.93;5.83;;;28.90;79.80;;;;;;5020675;28;20459;-64
2023/07/19 11:50:13;;;;;;;13.90;6.20;;;29.20;82.40;;;;;;5017969;28;20816;-64
2023/07/19 11:52:46;;;;;;;5.40;4.77;;;29.50;76.60;;;;;;5014945;28;20776;-64
2023/07/19 11:55:13;;;;;;;8.93;5.20;;;29.70;74.80;;;;;;5021266;28;20984;-64
2023/07/19 11:57:41;;;;;;;8.90;4.53;;;29.70;73.10;;;;;;5023993;28;20886;-64
2023/07/19 12:00:11;;;;;;;7.03;4.67;;;29.50;73.40;;;;;;5025049;28;20890;-62
2023/07/19 12:02:38;;;;;;;10.80;4.53;;;29.40;74.20;;;;;;5027145;28;20479;-63
2023/07/19 12:05:06;;;;;;;6.30;4.43;;;29.10;75.00;;;;;;5026668;28;20510;-63
2023/07/19 12:07:33;;;;;;;11.93;4.87;;;28.90;73.40;;;;;;5025968;28;20450;-63
2023/07/19 12:10:04;;;;;;;5.23;4.23;;;28.60;73.60;;;;;;5021024;28;20749;-62
2023/07/19 12:12:31;;;;;;;6.40;4.33;;;28.70;74.80;;;;;;5009837;28;20550;-63
2023/07/19 12:15:00;;;;;;;16.07;4.80;;;28.80;74.80;;;;;;5016713;28;20696;-63
2023/07/19 12:17:28;;;;;;;9.23;4.40;;;29.10;74.90;;;;;;5023198;28;20483;-63
2023/07/19 12:19:55;;;;;;;4.53;4.10;;;29.40;75.10;;;;;;5025795;28;20511;-63
2023/07/19 12:22:22;;;;;;;10.20;5.17;;;29.80;74.50;;;;;;5021760;28;20468;-63
2023/07/19 12:24:49;;;;;;;5.17;4.40;;;30.10;70.30;;;;;;5027240;28;21077;-63
2023/07/19 12:27:18;;;;;;;15.37;5.40;;;30.10;71.20;;;;;;5024663;28;20817;-64
2023/07/19 12:29:45;;;;;;;11.90;4.40;;;30.10;70.30;;;;;;5021862;28;20562;-64
2023/07/19 12:32:12;;;;;;;12.17;5.30;;;30.50;69.60;;;;;;5021780;28;20466;-63
2023/07/19 12:34:40;;;;;;;9.60;5.17;;;29.80;69.70;;;;;;5020631;28;20454;-63
2023/07/19 12:37:07;;;;;;;11.60;5.30;;;29.90;70.70;;;;;;5025692;28;20487;-64
2023/07/19 12:39:34;;;;;;;5.63;4.77;;;29.90;69.70;;;;;;5025735;28;20490;-63